AirNav   TITAN Aviation Fuels
 
 607 users online  

43A Montgomery County Airport
Star, North Carolina, USA

GOING TO STAR?


FAA INFORMATION EFFECTIVE 16 JUNE 2022

Location

FAA Identifier: 43A
Lat/Long: 35-23-04.7390N 079-47-24.9590W
35-23.078983N 079-47.415983W
35.3846497,-79.7902664
(estimated)
Elevation: 632.5 ft. / 192.8 m (surveyed)
Variation: 06W (1985)
Time zone: UTC -4 (UTC -5 during Standard Time)
Zip code: 27356

Airport Operations

Airport use: Open to the public
Activation date: 07/1965
Control tower: no
ARTCC: WASHINGTON CENTER
FSS: RALEIGH FLIGHT SERVICE STATION
NOTAMs facility: RDU (NOTAM-D service available)
Attendance: UNATTENDED
Wind indicator: lighted
Segmented circle: no
Lights: ACTVT PAPI RWY 03 & 21; MIRL RWY 03/21 - CTAF.
Beacon: white-green (lighted land airport)
Operates sunset to sunrise.

Airport Communications

CTAF/UNICOM: 122.8
FAYETTEVILLE APPROACH: 127.8
FAYETTEVILLE DEPARTURE: 127.8
WX AWOS-3 at HBI (17 nm N): 119.275 (336-626-7933)
WX AWOS-3 at VUJ (18 nm W): 128.175 (704-986-2097)

Airport Services

Parking: tiedowns
Airframe service: NONE
Powerplant service: NONE
Bottled oxygen: NONE
Bulk oxygen: NONE

Runway Information

Runway 3/21

Dimensions: 4002 x 75 ft. / 1220 x 23 m
Surface: asphalt, in excellent condition
Weight bearing capacity: 
Single wheel: 20.0
Runway edge lights: medium intensity
RUNWAY 3  RUNWAY 21
Latitude: 35-22.772023N35-23.385948N
Longitude: 079-47.563203W079-47.268743W
Elevation: 572.7 ft.632.5 ft.
Traffic pattern: leftleft
Runway heading: 027 magnetic, 021 true207 magnetic, 201 true
Displaced threshold: no458 ft.
Markings: nonprecision, in good conditionnonprecision, in good condition
Visual slope indicator: 2-light PAPI on left (3.50 degrees glide path)2-light PAPI on left (4.00 degrees glide path)
Runway end identifier lights: nono
Touchdown point: yes, no lightsyes, no lights
Obstructions: 48 ft. trees, 1455 ft. from runway, 18 ft. right of centerline, 26:1 slope to clear30 ft. pole, 449 ft. from runway, 126 ft. left of centerline, 8:1 slope to clear
APCH RATIO 20:1 TO DSPLCD THR.

Airport Ownership and Management from official FAA records

Ownership: Publicly-owned
Owner: MONTGOMERY COUNTY
PO BOX 425
TROY, NC 27371
Phone 910-576-4221
Manager: KEVIN MCNEILL
PO BOX 425
TROY, NC 27371
Phone (910) 220-1218
MGR PHONE 910-220-1218.

Airport Operational Statistics

Aircraft based on the field: 11
Single engine airplanes: 11
    
Aircraft operations: avg 92/week *
42% military
31% transient general aviation
27% local general aviation
* for 12-month period ending 11 May 2019

Additional Remarks

DEER OCCASIONALLY ON RWY.
40 FT PLINE 350-750 FT FM THR RWY 21 ACROSS & L OF CNTRLN.
20-25 FT DEPRESSION 180 FT S OF RWY 03 THR ON CNTRLN.
RWY 03 HAS UPHILL GRADE.
35-40 FT DROP-OFF 80 FT W OF RWY 03 CNTRLN; 30 FT DROP-OFF 300 FT FM RWY 21 THR ON CNTRLN; 30 FT DROP-OFF 80 FT R OF RWY 21 CNTRLN.
FOR CD CTC FAYETTEVILLE APCH AT 910-484-8012.

Instrument Procedures

NOTE: All procedures below are presented as PDF files. If you need a reader for these files, you should download the free Adobe Reader.

NOT FOR NAVIGATION. Please procure official charts for flight.
FAA instrument procedures published for use from 16 June 2022 at 0901Z to 14 July 2022 at 0900z.

 
IAPs - Instrument Approach Procedures
RNAV (GPS) RWY 03   download (191KB)
RNAV (GPS) RWY 21   download (207KB)
NOTE: Special Take-Off Minimums/Departure Procedures apply   download

Other nearby airports with instrument procedures:

KHBI - Asheboro Regional Airport (17 nm N)
KVUJ - Stanly County Airport (18 nm W)
KSOP - Moore County Airport (22 nm SE)
KSCR - Siler City Municipal Airport (24 nm NE)
KHFF - Mackall Army Airfield (25 nm SE)
 
Loc | Ops | Rwys | IFR | FBO | Links
Com | Nav | Svcs | Stats | Notes
Area around 43A (Montgomery County Airport)
 
Road maps at: MapQuest Bing Google
 
Aerial photo
WARNING: Photo may not be current or correct
Aerial photo of 43A (Montgomery County Airport)
Photo courtesy of AirNav, LLC
Photo taken 09-Aug-2010
looking South.

Do you have a better or more recent aerial photo of Montgomery County Airport that you would like to share? If so, please send us your photo.

 
Sectional chart

 
Airport distance calculator
Flying to Montgomery County Airport? Find the distance to fly.

From to 43A

Sunrise and sunset
Times for 28-Jun-2022
 Local
(UTC-4)
 Zulu
(UTC)
Morning civil twilight05:3809:38
Sunrise06:0810:08
Sunset20:3700:37
Evening civil twilight21:0701:07

Current date and time
Zulu (UTC)  28-Jun-2022 05:28:02
Local (UTC-4)  28-Jun-2022 01:28:02
 
METAR
KHBI 
17nm N 
280515Z AUTO 01003KT 10SM CLR 21/21 A3014 RMK AO2 T02130207
KVUJ 
18nm W 
280515Z AUTO 02006KT 10SM SCT039 SCT046 SCT055 23/21 A3014 RMK AO2 T02290211
KSOP 
22nm SE 
280456Z AUTO 00000KT 10SM BKN095 22/22 A3010 RMK AO2 SLP193 T02220217 403170217 TSNO
KSCR 
24nm NE 
280515Z AUTO 00000KT 10SM SCT080 OVC090 20/17 A3011 RMK AO2 T02030173
KAFP 
26nm SW 
280515Z AUTO 00000KT 7SM BKN060 BKN095 BKN120 23/22 A3008 RMK AO2 T02280220
KHFF 
26nm SE 
280456Z AUTO 00000KT 10SM BKN065 OVC075 23/23 A3006 RMK AO2 SLP179 T02320230 403110217
KRCZ 
30nm S 
280515Z AUTO 00000KT 10SM SCT065 SCT075 23/23 A3008 RMK AO2 T02330227
TAF
KPOB 
40nm E 
280100Z 2801/2907 27007KT 9999 SCT080 BKN250 QNH3000INS BECMG 2804/2805 32008KT 8000 -SHRA VCTS SCT012 BKN025 OVC045CB QNH3003INS BECMG 2807/2808 02006KT 6000 -RA BR BKN012 OVC025 QNH3008INS BECMG 2813/2814 04012G18KT 9999 NSW SCT045 SCT080 QNH3012INS BECMG 2819/2820 07007KT 9999 FEW025 SCT045 BKN080 QNH3015INS TX29/2819Z TN19/2810Z LAST NO AMDS AFT 2802 NEXT 2817
KGSO 
44nm N 
272059Z 2721/2818 31004KT P6SM SCT050 BKN150 FM280200 01005KT P6SM BKN060 BKN250
KFBG 
46nm E 
280100Z 2801/2907 VRB06KT 9999 BKN045 QNH2999INS BECMG 2804/2805 VRB06KT 8000 -SHRA BKN025 QNH3002INS TEMPO 2806/2810 28015G25KT 8000 -TSRA BKN015CB OVC040 BECMG 2811/2812 02006KT 8000 -SHRA BKN010 QNH3011INS BECMG 2812/2813 04009KT 9999 NSW SCT040 QNH3013INS BECMG 2813/2814 04010G15KT 9999 FEW040 QNH3013INS BECMG 2822/2823 VRB06KT 9999 SCT055 QNH3012INS TX28/2819Z TN21/2812Z
KINT 
49nm NW 
272100Z 2721/2818 VRB04KT P6SM SCT050 BKN150 FM280200 01005KT P6SM BKN060 BKN250
NOTAMs
Click for the latest NOTAMs
NOTAMs are issued by the DoD/FAA and will open in a separate window not controlled by AirNav.

 

 
 

FBO, Fuel Providers, and Aircraft Ground Support

  
 Business Name 
 
 Contact 
 
 Services / Description 
 
Fuel Prices
 
Comments
  
Montgomery County (FBO) 910-576-4221
[email]
Airport management, Aviation fuel, Aircraft parking (ramp or tiedown), Hangar leasing / sales, Passenger terminal and lounge, Pilots lounge / snooze room
 
Wireless Internet Access (WiFi)  
 
More info about Montgomery County (FBO)
Titan
100LL
SS $5.58 
 Updated 07-Apr-2022
 
   2 read write
SS=Self service
Update Fuel Prices
 

Would you like to see your business listed on this page?

 If your business provides an interesting product or service to pilots, flight crews, aircraft, or users of the Montgomery County Airport, you should consider listing it here.  To start the listing process, click on the button below
 
Add a business
 

Other Pages about Montgomery County Airport

Update a link
 
Copyright © AirNav, LLC. All rights reserved. Privacy Policy  Contact